METAR Data
IDs: Format: Raw Decoded Include TAF

Data at: 2125 UTC 23 Oct 2021

EGNM 232120Z 18011KT 9999 BKN037 10/05 Q1018